Time;durP1;ratioP1;P1;durP2;ratioP2;P2;SDS_P1;SDS_P2;PMS_P1;PMS_P2;Temp;Humidity;BMP_temperature;BMP_pressure;BME280_temperature;BME280_humidity;BME280_pressure;Samples;Min_cycle;Max_cycle;Signal;HPM_P1;HPM_P2
2022/08/26 00:01:03;;;;;;;2.20;1.40;;;18.20;99.90;;;;;;6181781;23;20107;-76
2022/08/26 00:03:30;;;;;;;2.15;1.10;;;18.20;99.90;;;;;;6180136;23;20109;-76
2022/08/26 00:05:58;;;;;;;2.17;1.13;;;18.20;99.90;;;;;;6155448;23;20466;-76
2022/08/26 00:08:25;;;;;;;1.92;1.00;;;18.20;99.90;;;;;;6180925;23;20021;-76
2022/08/26 00:10:52;;;;;;;1.65;1.17;;;18.20;99.90;;;;;;6181593;23;20108;-76
2022/08/26 00:13:20;;;;;;;1.40;1.30;;;18.20;99.90;;;;;;6181150;23;20316;-76
2022/08/26 00:15:50;;;;;;;2.22;1.20;;;18.20;99.90;;;;;;6181409;23;20025;-76
2022/08/26 00:18:18;;;;;;;2.90;1.05;;;18.20;99.90;;;;;;6182019;23;20017;-76
2022/08/26 00:20:46;;;;;;;1.40;1.30;;;18.20;99.90;;;;;;6180807;23;20472;-76
2022/08/26 00:23:13;;;;;;;1.10;1.10;;;18.20;99.90;;;;;;6183096;23;20060;-76
2022/08/26 00:25:41;;;;;;;1.50;1.05;;;18.20;99.90;;;;;;6181692;23;20021;-76
2022/08/26 00:28:08;;;;;;;1.50;1.08;;;18.20;99.90;;;;;;6183428;23;20350;-75
2022/08/26 00:30:35;;;;;;;2.95;1.40;;;18.30;99.90;;;;;;6183398;23;20025;-75
2022/08/26 00:33:04;;;;;;;1.35;1.20;;;18.20;99.90;;;;;;6181924;23;20025;-75
2022/08/26 00:35:33;;;;;;;1.33;1.23;;;18.20;99.90;;;;;;6182785;23;20021;-75
2022/08/26 00:38:01;;;;;;;1.50;1.38;;;18.20;99.90;;;;;;6181426;23;20049;-75
2022/08/26 00:40:33;;;;;;;2.60;1.20;;;18.20;99.90;;;;;;6183287;23;20020;-75
2022/08/26 00:43:01;;;;;;;1.83;1.38;;;18.30;99.90;;;;;;6183160;23;20076;-75
2022/08/26 00:45:38;;;;;;;1.40;1.30;;;18.20;99.90;;;;;;6182187;23;20425;-75
2022/08/26 00:48:08;;;;;;;1.48;1.38;;;18.20;99.90;;;;;;6182950;23;20021;-76
2022/08/26 00:50:40;;;;;;;2.15;1.33;;;18.20;99.90;;;;;;6181814;23;20056;-75
2022/08/26 00:53:21;;;;;;;2.67;1.35;;;18.20;99.90;;;;;;6183400;23;20393;-75
2022/08/26 00:55:54;;;;;;;3.70;1.27;;;18.20;99.90;;;;;;6183539;23;20055;-76
2022/08/26 00:58:22;;;;;;;;;;;18.20;99.90;;;;;;6206869;23;20025;-75
2022/08/26 01:00:50;;;;;;;1.60;1.33;;;18.20;99.90;;;;;;6181407;23;19926;-75
2022/08/26 01:03:23;;;;;;;2.00;1.80;;;18.20;99.90;;;;;;6182241;23;20031;-75
2022/08/26 01:05:54;;;;;;;;;;;18.20;99.90;;;;;;6183557;23;20025;-74
2022/08/26 01:08:21;;;;;;;2.40;1.65;;;18.20;99.90;;;;;;6181344;23;20011;-74
2022/08/26 01:10:49;;;;;;;1.98;1.77;;;18.20;99.90;;;;;;6183210;23;20450;-74
2022/08/26 01:13:17;;;;;;;2.70;1.30;;;18.20;99.90;;;;;;6180998;23;20467;-75
2022/08/26 01:15:48;;;;;;;1.42;1.33;;;18.20;99.90;;;;;;6156330;23;20107;-75
2022/08/26 01:18:16;;;;;;;1.70;1.27;;;18.20;99.90;;;;;;6156563;23;20401;-74
2022/08/26 01:20:55;;;;;;;1.65;1.20;;;18.20;99.90;;;;;;6182913;23;20025;-75
2022/08/26 01:23:32;;;;;;;3.28;1.50;;;18.20;99.90;;;;;;6181326;23;20337;-74
2022/08/26 01:26:06;;;;;;;1.58;1.30;;;18.20;99.90;;;;;;6155907;23;20017;-75
2022/08/26 01:28:35;;;;;;;2.03;1.35;;;18.20;99.90;;;;;;6182864;23;20028;-75
2022/08/26 01:31:26;;;;;;;3.13;1.50;;;18.20;99.90;;;;;;6181528;23;20052;-74
2022/08/26 01:34:04;;;;;;;2.90;1.67;;;18.20;99.90;;;;;;6182372;23;20025;-74
2022/08/26 01:36:31;;;;;;;2.22;1.50;;;18.20;99.90;;;;;;6183142;23;20654;-75
2022/08/26 01:39:00;;;;;;;1.50;1.15;;;18.20;99.90;;;;;;6182798;23;20048;-75
2022/08/26 01:41:27;;;;;;;1.48;1.38;;;18.20;99.90;;;;;;6183566;23;20453;-75
2022/08/26 01:43:57;;;;;;;4.00;1.48;;;18.20;99.90;;;;;;6180597;23;20024;-75
2022/08/26 01:46:26;;;;;;;5.47;1.90;;;18.20;99.90;;;;;;6182347;23;20032;-75
2022/08/26 01:48:55;;;;;;;2.70;1.70;;;18.10;99.90;;;;;;6182547;23;20021;-75
2022/08/26 01:51:24;;;;;;;3.17;1.40;;;18.10;99.90;;;;;;6183393;23;20061;-75
2022/08/26 01:53:51;;;;;;;2.35;1.50;;;18.10;99.90;;;;;;6182618;23;20025;-75
2022/08/26 01:56:22;;;;;;;1.60;1.50;;;18.20;99.90;;;;;;6182367;23;20458;-75
2022/08/26 01:58:54;;;;;;;2.88;1.23;;;18.20;99.90;;;;;;6180944;23;20032;-75
2022/08/26 02:01:24;;;;;;;2.60;1.70;;;18.10;99.90;;;;;;6182412;23;20060;-75
2022/08/26 02:03:59;;;;;;;1.70;1.60;;;18.10;99.90;;;;;;6182329;23;20028;-75
2022/08/26 02:06:26;;;;;;;2.13;1.75;;;18.20;99.90;;;;;;6206300;23;20021;-75
2022/08/26 02:08:57;;;;;;;1.60;1.50;;;18.20;99.90;;;;;;6182480;23;20024;-75
2022/08/26 02:11:26;;;;;;;1.70;1.60;;;18.10;99.90;;;;;;6182254;23;20450;-75
2022/08/26 02:13:58;;;;;;;2.05;1.60;;;18.10;99.90;;;;;;6180770;23;20024;-75
2022/08/26 02:16:30;;;;;;;1.60;1.50;;;18.10;99.90;;;;;;6180058;23;20032;-75
2022/08/26 02:18:58;;;;;;;1.80;1.70;;;18.10;99.90;;;;;;6181459;23;20351;-73
2022/08/26 02:21:26;;;;;;;1.90;1.70;;;18.10;99.90;;;;;;6181412;23;20571;-74
2022/08/26 02:23:53;;;;;;;2.70;1.60;;;18.10;99.90;;;;;;6182242;23;20020;-74
2022/08/26 02:26:24;;;;;;;3.05;1.95;;;18.10;99.90;;;;;;6180802;23;20394;-74
2022/08/26 02:28:58;;;;;;;2.15;1.77;;;18.10;99.90;;;;;;6181981;23;20025;-74
2022/08/26 02:31:25;;;;;;;3.25;1.73;;;18.10;99.90;;;;;;6180879;23;20025;-74
2022/08/26 02:33:53;;;;;;;3.30;1.60;;;18.10;99.90;;;;;;6180714;23;20025;-74
2022/08/26 02:36:21;;;;;;;2.10;1.92;;;18.10;99.90;;;;;;6182329;23;20021;-74
2022/08/26 02:38:49;;;;;;;2.72;1.90;;;18.10;99.90;;;;;;6179720;23;20021;-74
2022/08/26 02:41:16;;;;;;;3.65;2.08;;;18.10;99.90;;;;;;6181880;23;20025;-74
2022/08/26 02:43:44;;;;;;;3.08;2.00;;;18.10;99.90;;;;;;6181840;23;20105;-74
2022/08/26 02:46:13;;;;;;;3.80;2.10;;;18.10;99.90;;;;;;6154869;23;20021;-74
2022/08/26 02:48:40;;;;;;;3.40;2.40;;;18.10;99.90;;;;;;6181705;23;20457;-74
2022/08/26 02:51:08;;;;;;;4.93;2.78;;;18.10;99.90;;;;;;6180523;23;20024;-75
2022/08/26 02:53:35;;;;;;;7.13;3.10;;;18.10;99.90;;;;;;6182385;23;20029;-74
2022/08/26 02:56:03;;;;;;;3.28;2.97;;;18.10;99.90;;;;;;6155368;23;20060;-74
2022/08/26 02:58:31;;;;;;;3.58;3.28;;;18.10;99.90;;;;;;6180430;23;20020;-73
2022/08/26 03:00:58;;;;;;;3.28;2.50;;;18.10;99.90;;;;;;6182041;23;20025;-74
2022/08/26 03:03:27;;;;;;;5.03;3.00;;;18.10;99.90;;;;;;6181883;23;20025;-74
2022/08/26 03:05:54;;;;;;;4.45;2.80;;;18.10;99.90;;;;;;6182351;23;20032;-74
2022/08/26 03:08:22;;;;;;;2.28;2.03;;;18.10;99.90;;;;;;6182409;23;20068;-74
2022/08/26 03:10:50;;;;;;;1.95;1.70;;;18.10;99.90;;;;;;6181362;23;20087;-73
2022/08/26 03:13:30;;;;;;;4.00;2.35;;;18.20;99.90;;;;;;6182412;23;20020;-73
2022/08/26 03:15:57;;;;;;;2.60;2.40;;;18.20;99.90;;;;;;6181868;23;20450;-74
2022/08/26 03:18:26;;;;;;;3.80;3.28;;;18.20;99.90;;;;;;6181742;23;20079;-74
2022/08/26 03:20:53;;;;;;;3.42;3.22;;;18.20;99.90;;;;;;6181806;23;20138;-74
2022/08/26 03:23:21;;;;;;;3.22;3.03;;;18.20;99.90;;;;;;6181022;23;20422;-73
2022/08/26 03:25:50;;;;;;;4.15;2.30;;;18.20;99.90;;;;;;6179738;23;20017;-73
2022/08/26 03:28:17;;;;;;;3.67;2.42;;;18.20;99.90;;;;;;6179838;23;20017;-73
2022/08/26 03:30:43;;;;;;;4.90;2.88;;;18.20;99.90;;;;;;6179732;23;20029;-73
2022/08/26 03:33:13;;;;;;;6.30;2.85;;;18.20;99.90;;;;;;6179774;23;20025;-74
2022/08/26 03:35:43;;;;;;;6.00;3.40;;;18.20;99.90;;;;;;6181716;23;20025;-73
2022/08/26 03:38:11;;;;;;;4.18;3.78;;;18.20;99.90;;;;;;6181714;23;20031;-73
2022/08/26 03:40:41;;;;;;;10.38;4.32;;;18.20;99.90;;;;;;6180628;23;20048;-73
2022/08/26 03:43:10;;;;;;;4.97;3.97;;;18.30;99.90;;;;;;6179899;23;20040;-73
2022/08/26 03:45:39;;;;;;;4.18;3.15;;;18.30;99.90;;;;;;6180340;23;20174;-74
2022/08/26 03:48:07;;;;;;;2.72;2.45;;;18.30;99.90;;;;;;6181367;23;20124;-73
2022/08/26 03:50:35;;;;;;;2.17;2.08;;;18.30;99.90;;;;;;6181409;23;20461;-74
2022/08/26 03:53:04;;;;;;;3.28;2.42;;;18.30;99.90;;;;;;6179794;23;20017;-73
2022/08/26 03:55:35;;;;;;;2.75;2.28;;;18.30;99.90;;;;;;6182669;23;20100;-75
2022/08/26 03:58:03;;;;;;;4.80;2.47;;;18.40;99.90;;;;;;6180136;23;20025;-78
2022/08/26 04:00:30;;;;;;;2.50;2.30;;;18.40;99.90;;;;;;6181444;23;20021;-77
2022/08/26 04:02:58;;;;;;;3.10;2.28;;;18.40;99.90;;;;;;6181896;23;20343;-77
2022/08/26 04:05:26;;;;;;;4.10;1.92;;;18.40;99.90;;;;;;6180018;23;20052;-78
2022/08/26 04:07:53;;;;;;;7.63;2.63;;;18.40;99.90;;;;;;6182137;23;20021;-78
2022/08/26 04:10:23;;;;;;;2.70;2.50;;;18.50;99.90;;;;;;6181793;23;20311;-78
2022/08/26 04:12:51;;;;;;;3.47;2.67;;;18.50;99.90;;;;;;6181843;23;20445;-78
2022/08/26 04:15:20;;;;;;;4.70;2.42;;;18.50;99.90;;;;;;6180186;23;20075;-78
2022/08/26 04:17:48;;;;;;;6.88;2.72;;;18.50;99.90;;;;;;6181643;23;20087;-77
2022/08/26 04:20:17;;;;;;;3.03;2.50;;;18.60;99.90;;;;;;6182014;23;20104;-77
2022/08/26 04:22:44;;;;;;;6.88;2.13;;;18.60;99.90;;;;;;6179592;23;20413;-77
2022/08/26 04:25:13;;;;;;;4.93;1.80;;;18.70;99.90;;;;;;6181385;23;20052;-77
2022/08/26 04:27:42;;;;;;;3.08;1.63;;;18.70;99.90;;;;;;6179818;23;20021;-77
2022/08/26 04:30:11;;;;;;;3.97;1.58;;;18.70;99.90;;;;;;6181743;23;20308;-75
2022/08/26 04:32:39;;;;;;;2.88;1.75;;;18.70;99.90;;;;;;6182039;23;20025;-75
2022/08/26 04:35:07;;;;;;;3.00;2.10;;;18.70;99.90;;;;;;6155338;23;20021;-75
2022/08/26 04:37:34;;;;;;;3.00;2.05;;;18.70;99.90;;;;;;6181011;23;20021;-75
2022/08/26 04:40:02;;;;;;;3.22;1.83;;;18.80;99.90;;;;;;6182140;23;20433;-75
2022/08/26 04:42:30;;;;;;;3.03;1.90;;;18.80;99.90;;;;;;6182654;23;20029;-75
2022/08/26 04:45:00;;;;;;;6.03;2.58;;;18.80;99.90;;;;;;6181289;23;20450;-77
2022/08/26 04:47:27;;;;;;;3.20;1.98;;;18.90;99.90;;;;;;6205766;23;20032;-77
2022/08/26 04:49:56;;;;;;;3.25;2.03;;;18.90;99.90;;;;;;6182420;23;20120;-77
2022/08/26 04:52:23;;;;;;;4.03;1.98;;;19.00;99.90;;;;;;6182951;23;20346;-77
2022/08/26 04:54:51;;;;;;;3.13;1.80;;;19.00;99.90;;;;;;6182841;23;20052;-78
2022/08/26 04:57:19;;;;;;;2.10;1.70;;;19.10;99.90;;;;;;6183135;23;20021;-77
2022/08/26 04:59:46;;;;;;;2.03;1.80;;;19.20;99.90;;;;;;6181395;23;20358;-78
2022/08/26 05:02:15;;;;;;;4.63;1.85;;;19.20;99.90;;;;;;6182821;23;20135;-78
2022/08/26 05:04:43;;;;;;;2.55;1.60;;;19.30;99.90;;;;;;6180880;23;20025;-78
2022/08/26 05:07:10;;;;;;;3.80;1.70;;;19.30;99.90;;;;;;6180881;23;20032;-78
2022/08/26 05:09:40;;;;;;;2.35;2.13;;;19.40;99.90;;;;;;6183374;23;20052;-77
2022/08/26 05:12:08;;;;;;;4.82;1.90;;;19.40;99.90;;;;;;6184155;23;20484;-77
2022/08/26 05:14:36;;;;;;;2.17;1.20;;;19.50;99.90;;;;;;6184685;23;20032;-77
2022/08/26 05:17:03;;;;;;;1.35;1.25;;;19.50;99.90;;;;;;6184682;23;20048;-76
2022/08/26 05:19:32;;;;;;;1.50;1.40;;;19.50;99.90;;;;;;6182754;23;20021;-78
2022/08/26 05:21:59;;;;;;;1.42;1.33;;;19.50;99.90;;;;;;6184719;23;20351;-77
2022/08/26 05:24:27;;;;;;;4.97;1.80;;;19.60;99.90;;;;;;6184485;23;20025;-77
2022/08/26 05:26:55;;;;;;;2.15;1.75;;;19.60;99.90;;;;;;6183765;23;20083;-77
2022/08/26 05:29:22;;;;;;;6.72;3.17;;;19.60;99.90;;;;;;6184306;23;20027;-74
2022/08/26 05:31:52;;;;;;;20.42;5.55;;;19.70;99.90;;;;;;6182648;23;20021;-75
2022/08/26 05:34:20;;;;;;;16.60;5.07;;;19.70;99.90;;;;;;6181914;23;20021;-75
2022/08/26 05:36:49;;;;;;;4.30;2.40;;;19.70;99.90;;;;;;6182733;23;20466;-74
2022/08/26 05:39:22;;;;;;;2.10;1.90;;;19.70;99.90;;;;;;6180923;23;20017;-78
2022/08/26 05:41:50;;;;;;;6.22;2.47;;;19.70;99.90;;;;;;6179669;23;20020;-82
2022/08/26 05:44:19;;;;;;;3.67;1.70;;;19.70;99.90;;;;;;6204920;23;20035;-82
2022/08/26 05:46:48;;;;;;;3.20;2.00;;;19.80;99.90;;;;;;6181688;23;20458;-80
2022/08/26 05:49:15;;;;;;;5.72;2.33;;;19.70;99.90;;;;;;6180044;23;20031;-80
2022/08/26 05:51:45;;;;;;;3.22;2.28;;;19.80;99.90;;;;;;6182103;23;20041;-77
2022/08/26 05:54:16;;;;;;;2.45;1.90;;;19.70;99.90;;;;;;6182674;23;20025;-77
2022/08/26 05:56:43;;;;;;;2.63;2.20;;;19.70;99.90;;;;;;6181157;23;20021;-78
2022/08/26 05:59:38;;;;;;;7.05;2.42;;;19.80;99.90;;;;;;6181157;23;20100;-83
2022/08/26 06:02:15;;;;;;;6.57;2.13;;;19.80;99.90;;;;;;6180710;23;20365;-80
2022/08/26 06:04:46;;;;;;;6.15;2.15;;;19.80;99.90;;;;;;6157224;23;20115;-80
2022/08/26 06:07:15;;;;;;;6.78;2.15;;;19.90;99.90;;;;;;6182238;23;20024;-78
2022/08/26 06:09:44;;;;;;;5.32;2.00;;;20.00;99.90;;;;;;6180151;23;20028;-77
2022/08/26 06:12:12;;;;;;;3.83;2.67;;;20.00;99.90;;;;;;6180848;23;20701;-77
2022/08/26 06:14:39;;;;;;;5.82;3.35;;;20.10;99.90;;;;;;6179628;23;20517;-78
2022/08/26 06:17:09;;;;;;;4.50;1.90;;;20.20;99.90;;;;;;6181864;23;20075;-81
2022/08/26 06:19:36;;;;;;;3.35;1.75;;;20.40;99.90;;;;;;6182385;23;20039;-81
2022/08/26 06:25:36;;;;;;;3.70;1.70;;;20.50;99.90;;;;;;6182228;23;20025;-77
2022/08/26 06:27:38;;;;;;;4.05;1.65;;;20.70;99.90;;;;;;6183312;23;20021;-78
2022/08/26 06:30:11;;;;;;;10.93;3.08;;;20.80;99.90;;;;;;6182065;23;20049;-80
2022/08/26 06:32:39;;;;;;;8.38;2.13;;;20.90;99.90;;;;;;6184204;23;20044;-81
2022/08/26 06:35:08;;;;;;;3.55;1.65;;;20.90;99.90;;;;;;6182130;23;20060;-82
2022/08/26 06:37:39;;;;;;;5.88;1.70;;;21.00;99.90;;;;;;6184083;23;20024;-81
2022/08/26 06:40:09;;;;;;;2.97;1.80;;;21.00;99.90;;;;;;6184208;23;20021;-77
2022/08/26 06:42:37;;;;;;;2.25;1.63;;;21.20;99.90;;;;;;6180543;23;20044;-77
2022/08/26 06:45:08;;;;;;;2.40;1.65;;;21.30;99.90;;;;;;6180152;23;20063;-81
2022/08/26 06:47:36;;;;;;;6.63;1.75;;;21.30;99.90;;;;;;6178054;23;20025;-79
2022/08/26 06:50:03;;;;;;;5.85;1.92;;;21.40;99.90;;;;;;6180312;23;20462;-80
2022/08/26 06:52:31;;;;;;;1.88;1.40;;;21.30;99.90;;;;;;6182062;23;20032;-79
2022/08/26 06:54:58;;;;;;;2.58;1.25;;;21.30;99.90;;;;;;6183433;23;20031;-79
2022/08/26 06:57:31;;;;;;;7.47;2.75;;;21.30;99.90;;;;;;6183041;23;20116;-80
2022/08/26 06:59:58;;;;;;;4.50;2.83;;;21.30;99.90;;;;;;6183089;23;20021;-81
2022/08/26 07:02:26;;;;;;;3.45;2.20;;;21.30;99.90;;;;;;6182108;23;20488;-79
2022/08/26 07:04:53;;;;;;;5.60;2.60;;;21.50;99.90;;;;;;6182406;23;20029;-80
2022/08/26 07:07:20;;;;;;;7.18;2.58;;;21.60;99.90;;;;;;6182390;23;20024;-79
2022/08/26 07:09:48;;;;;;;3.83;2.55;;;21.70;99.90;;;;;;6182114;23;20021;-81
2022/08/26 07:12:16;;;;;;;9.30;2.55;;;21.80;99.90;;;;;;6180686;23;20036;-77
2022/08/26 07:14:45;;;;;;;4.93;2.05;;;21.90;99.90;;;;;;6176817;23;20025;-77
2022/08/26 07:17:13;;;;;;;3.08;1.98;;;22.00;99.90;;;;;;6180284;23;20025;-76
2022/08/26 07:19:40;;;;;;;7.05;1.77;;;22.10;99.90;;;;;;6180776;23;20025;-76
2022/08/26 07:22:08;;;;;;;3.28;1.88;;;22.10;99.90;;;;;;6177673;23;20025;-76
2022/08/26 07:24:39;;;;;;;2.33;1.83;;;22.10;99.90;;;;;;6180036;23;20029;-76
2022/08/26 07:27:14;;;;;;;4.63;2.03;;;22.20;99.90;;;;;;6177558;23;20025;-76
2022/08/26 07:29:42;;;;;;;3.42;1.90;;;22.20;99.90;;;;;;6177554;23;21098;-76
2022/08/26 07:32:13;;;;;;;9.80;2.58;;;22.30;99.90;;;;;;6177099;23;20023;-76
2022/08/26 07:34:42;;;;;;;4.22;1.98;;;22.30;99.90;;;;;;6153289;23;20021;-77
2022/08/26 07:37:09;;;;;;;6.80;2.15;;;22.30;99.90;;;;;;6181350;23;20063;-75
2022/08/26 07:39:37;;;;;;;1.80;1.70;;;22.20;99.90;;;;;;6179837;23;20029;-76
2022/08/26 07:42:06;;;;;;;2.10;1.77;;;22.20;99.90;;;;;;6180977;23;20028;-76
2022/08/26 07:44:34;;;;;;;5.13;1.50;;;22.10;99.90;;;;;;6180639;23;20462;-76
2022/08/26 07:47:01;;;;;;;3.38;1.60;;;22.10;99.90;;;;;;6178581;23;20036;-78
2022/08/26 07:49:30;;;;;;;3.22;1.70;;;22.00;99.90;;;;;;6181956;23;20029;-77
2022/08/26 07:51:58;;;;;;;4.28;1.73;;;21.80;99.90;;;;;;6154663;23;20025;-77
2022/08/26 07:54:26;;;;;;;4.40;1.92;;;21.70;99.90;;;;;;6154498;23;20120;-76
2022/08/26 07:56:54;;;;;;;4.43;2.28;;;21.60;99.90;;;;;;6181364;23;20025;-75
2022/08/26 07:59:22;;;;;;;4.43;2.03;;;21.50;99.90;;;;;;6180873;23;20335;-75
2022/08/26 08:01:50;;;;;;;5.72;2.13;;;21.40;99.90;;;;;;6180833;23;20021;-75
2022/08/26 08:04:19;;;;;;;1.73;1.60;;;21.40;99.90;;;;;;6154623;23;20347;-75
2022/08/26 08:06:49;;;;;;;2.88;1.30;;;21.40;99.90;;;;;;6178797;23;20024;-75
2022/08/26 08:09:17;;;;;;;4.05;1.50;;;21.30;99.90;;;;;;6180668;23;20087;-76
2022/08/26 08:11:45;;;;;;;4.00;1.90;;;21.40;99.90;;;;;;6178860;23;20031;-75
2022/08/26 08:14:14;;;;;;;2.70;1.65;;;21.40;99.90;;;;;;6180441;23;20051;-76
2022/08/26 08:16:42;;;;;;;5.30;1.60;;;21.50;99.90;;;;;;6179222;23;20532;-76
2022/08/26 08:19:10;;;;;;;2.50;1.70;;;21.50;99.90;;;;;;6154040;23;20343;-76
2022/08/26 08:21:39;;;;;;;5.10;1.63;;;21.50;99.90;;;;;;6179846;23;20028;-77
2022/08/26 08:24:09;;;;;;;6.45;2.08;;;21.60;99.90;;;;;;6180894;23;20029;-78
2022/08/26 08:26:40;;;;;;;4.35;1.85;;;21.70;99.90;;;;;;6182222;23;20056;-77
2022/08/26 08:29:08;;;;;;;2.00;1.70;;;21.70;99.90;;;;;;6178758;23;20067;-77
2022/08/26 08:31:38;;;;;;;2.50;2.30;;;21.80;99.90;;;;;;6177821;23;20025;-77
2022/08/26 08:34:06;;;;;;;6.40;1.80;;;21.90;99.90;;;;;;6179780;23;20025;-82
2022/08/26 08:36:35;;;;;;;7.28;2.00;;;21.90;99.90;;;;;;6180634;23;20025;-78
2022/08/26 08:39:07;;;;;;;4.88;1.67;;;22.00;99.90;;;;;;6177336;23;20450;-80
2022/08/26 08:42:14;;;;;;;4.90;1.50;;;22.10;99.90;;;;;;6179905;23;20048;-80
2022/08/26 08:44:49;;;;;;;2.28;1.92;;;22.20;99.90;;;;;;6156907;23;20041;-79
2022/08/26 08:47:27;;;;;;;9.38;2.08;;;22.30;99.90;;;;;;6181000;23;20411;-80
2022/08/26 08:50:07;;;;;;;2.95;1.85;;;22.30;99.90;;;;;;6182635;23;20032;-80
2022/08/26 08:52:50;;;;;;;2.45;2.28;;;22.40;99.90;;;;;;6184217;23;20025;-80
2022/08/26 08:55:25;;;;;;;4.50;1.83;;;22.30;99.90;;;;;;6133208;23;20032;-80
2022/08/26 08:58:44;;;;;;;4.82;1.92;;;22.30;99.90;;;;;;6181748;23;20020;-80
2022/08/26 09:01:45;;;;;;;6.82;2.22;;;22.10;99.90;;;;;;6206677;23;20025;-79
2022/08/26 09:04:51;;;;;;;2.88;2.00;;;22.00;99.90;;;;;;6181586;23;20108;-77
2022/08/26 09:07:28;;;;;;;3.20;2.90;;;22.00;99.90;;;;;;6157209;23;20071;-80
2022/08/26 09:15:32;;;;;;;;;;;;;;;;;;;;;
2022/08/26 09:18:54;;;;;;;4.45;2.45;;;21.60;99.90;;;;;;5957301;23;20028;-77
2022/08/26 09:22:07;;;;;;;3.50;2.53;;;21.50;99.90;;;;;;5941960;23;20024;-79
2022/08/26 09:24:41;;;;;;;3.85;2.42;;;21.50;99.90;;;;;;6113194;23;20104;-77
2022/08/26 09:27:10;;;;;;;4.00;2.38;;;21.50;99.90;;;;;;6182643;23;20099;-76
2022/08/26 09:29:44;;;;;;;2.17;1.98;;;21.40;99.90;;;;;;6183723;23;20051;-76
2022/08/26 09:32:23;;;;;;;3.58;2.28;;;21.40;99.90;;;;;;6182456;23;20028;-76
2022/08/26 09:34:57;;;;;;;3.38;2.90;;;21.40;99.90;;;;;;6183179;23;20028;-76
2022/08/26 09:37:41;;;;;;;5.07;2.95;;;21.40;99.90;;;;;;6180988;23;20100;-76
2022/08/26 09:40:30;;;;;;;2.90;2.08;;;21.40;99.90;;;;;;6183487;23;20049;-76
2022/08/26 09:43:18;;;;;;;7.03;3.08;;;21.40;99.90;;;;;;6182761;23;20032;-82
2022/08/26 09:45:53;;;;;;;6.70;3.08;;;21.30;99.90;;;;;;6182686;23;20779;-84
2022/08/26 09:48:35;;;;;;;2.55;2.35;;;21.40;99.90;;;;;;6205707;23;20029;-77
2022/08/26 09:51:07;;;;;;;3.53;2.20;;;21.30;99.90;;;;;;6183234;23;20390;-79
2022/08/26 09:53:53;;;;;;;5.68;2.47;;;21.20;99.90;;;;;;6182740;23;20172;-77
2022/08/26 09:56:28;;;;;;;3.28;2.47;;;21.10;99.90;;;;;;6183327;23;20020;-82
2022/08/26 09:58:57;;;;;;;4.38;2.40;;;21.00;99.90;;;;;;6183582;23;20029;-82
2022/08/26 10:01:32;;;;;;;4.95;2.90;;;21.00;99.90;;;;;;6206635;23;20025;-77
2022/08/26 10:04:14;;;;;;;9.35;2.80;;;21.00;99.90;;;;;;6156926;23;20031;-76
2022/08/26 10:06:55;;;;;;;5.20;2.70;;;21.00;99.90;;;;;;6183603;23;20052;-76
2022/08/26 10:09:25;;;;;;;3.03;2.72;;;21.00;99.90;;;;;;6182948;23;20100;-76
2022/08/26 10:11:57;;;;;;;4.88;3.35;;;21.00;99.90;;;;;;6183772;23;20021;-76
2022/08/26 10:14:30;;;;;;;4.82;2.30;;;20.90;99.90;;;;;;6183187;23;20082;-81
2022/08/26 10:17:12;;;;;;;3.85;2.50;;;20.80;99.90;;;;;;6183509;23;20053;-84
2022/08/26 10:20:15;;;;;;;3.17;2.35;;;20.80;99.90;;;;;;6156440;23;20028;-81
2022/08/26 10:23:49;;;;;;;4.13;2.33;;;20.90;99.90;;;;;;6180260;23;20032;-80
2022/08/26 10:29:48;;;;;;;;;;;20.90;99.90;;;;;;6180509;23;20111;-75
2022/08/26 10:32:24;;;;;;;8.00;2.42;;;20.80;99.90;;;;;;6180383;23;19920;-74
2022/08/26 10:34:59;;;;;;;7.03;3.45;;;20.70;99.90;;;;;;6180170;23;20027;-75
2022/08/26 10:37:38;;;;;;;5.07;2.88;;;20.70;99.90;;;;;;6180033;23;20072;-76
2022/08/26 10:40:13;;;;;;;3.40;2.80;;;20.70;99.90;;;;;;6106211;23;20067;-74
2022/08/26 10:42:46;;;;;;;3.88;2.65;;;20.80;99.90;;;;;;6178565;23;20055;-77
2022/08/26 10:45:24;;;;;;;5.13;2.70;;;20.80;99.90;;;;;;6180485;23;20029;-81
2022/08/26 10:48:03;;;;;;;4.80;3.20;;;20.80;99.90;;;;;;6182418;23;20120;-75
2022/08/26 10:50:39;;;;;;;3.97;2.53;;;20.80;99.90;;;;;;6182428;23;20498;-75
2022/08/26 10:53:17;;;;;;;5.93;3.83;;;20.80;99.90;;;;;;6180165;23;20056;-77
2022/08/26 10:55:57;;;;;;;8.45;3.45;;;20.90;99.90;;;;;;6180441;23;20104;-75
2022/08/26 10:58:55;;;;;;;3.05;2.78;;;20.90;99.90;;;;;;6180772;23;20406;-76
2022/08/26 11:01:47;;;;;;;5.07;3.75;;;20.90;99.90;;;;;;6156020;23;20021;-82
2022/08/26 11:04:43;;;;;;;13.50;6.28;;;20.90;99.90;;;;;;6183720;23;20032;-75
2022/08/26 11:07:36;;;;;;;4.70;3.70;;;20.90;99.90;;;;;;6178848;23;20071;-77
2022/08/26 11:10:11;;;;;;;3.67;3.33;;;20.90;99.90;;;;;;6183236;23;20047;-77
2022/08/26 11:12:55;;;;;;;22.55;8.20;;;20.90;99.90;;;;;;6180997;23;20064;-77
2022/08/26 11:16:08;;;;;;;37.38;13.60;;;20.90;99.90;;;;;;6182564;23;20560;-77
2022/08/26 11:18:47;;;;;;;5.67;2.70;;;20.90;99.90;;;;;;6180000;23;20120;-77
2022/08/26 11:21:52;;;;;;;12.13;5.70;;;20.90;99.90;;;;;;6182137;23;20029;-76
2022/08/26 11:24:43;;;;;;;5.13;2.80;;;20.90;99.90;;;;;;6180947;23;20024;-81
2022/08/26 11:27:55;;;;;;;29.35;12.18;;;21.00;99.90;;;;;;6181053;23;20083;-80
2022/08/26 11:30:55;;;;;;;7.85;4.07;;;21.00;99.90;;;;;;6130069;23;20044;-81
2022/08/26 11:33:57;;;;;;;11.35;5.72;;;21.00;99.90;;;;;;6181070;23;20032;-81
2022/08/26 11:36:56;;;;;;;5.80;3.22;;;21.00;99.90;;;;;;6180661;23;20056;-84
2022/08/26 11:39:34;;;;;;;6.57;3.40;;;21.00;99.90;;;;;;6183267;23;20024;-89
2022/08/26 11:42:19;;;;;;;10.98;4.65;;;21.00;99.90;;;;;;6183643;23;20052;-87
2022/08/26 11:45:19;;;;;;;4.38;2.65;;;21.00;99.90;;;;;;6185659;23;20028;-88
2022/08/26 11:47:46;;;;;;;3.63;3.05;;;21.00;99.90;;;;;;6183596;23;20095;-82
2022/08/26 11:50:27;;;;;;;6.43;3.40;;;21.00;99.90;;;;;;6181142;23;20420;-86
2022/08/26 11:53:00;;;;;;;3.30;2.88;;;21.00;99.90;;;;;;6177779;23;20025;-84
2022/08/26 11:55:30;;;;;;;4.72;3.28;;;21.00;99.90;;;;;;6181061;23;20021;-80
2022/08/26 11:58:01;;;;;;;5.28;3.05;;;21.10;99.90;;;;;;6182496;23;20087;-82
2022/08/26 12:00:34;;;;;;;6.03;2.90;;;21.10;99.90;;;;;;6181922;23;20025;-83
2022/08/26 12:03:07;;;;;;;5.68;3.50;;;21.10;99.90;;;;;;6180598;23;20092;-80
2022/08/26 12:05:43;;;;;;;3.50;3.20;;;21.10;99.90;;;;;;6155338;23;20028;-78
2022/08/26 12:08:17;;;;;;;4.82;3.13;;;21.10;99.90;;;;;;6181151;23;20385;-79
2022/08/26 12:10:45;;;;;;;8.35;3.95;;;21.10;99.90;;;;;;6177958;23;20024;-78
2022/08/26 12:13:24;;;;;;;5.60;3.22;;;21.10;99.90;;;;;;6178328;23;20025;-80
2022/08/26 12:16:00;;;;;;;3.75;2.85;;;21.10;99.90;;;;;;6154577;23;20021;-84
2022/08/26 12:18:33;;;;;;;4.45;3.10;;;21.10;99.90;;;;;;6180645;23;20422;-81
2022/08/26 12:21:12;;;;;;;3.65;3.35;;;21.00;99.90;;;;;;6181719;23;20109;-82
2022/08/26 12:23:45;;;;;;;6.25;2.97;;;21.10;99.90;;;;;;6182299;23;20031;-78
2022/08/26 12:26:22;;;;;;;4.18;3.05;;;21.10;99.90;;;;;;6180440;23;20021;-79
2022/08/26 12:28:56;;;;;;;5.70;2.95;;;21.10;99.90;;;;;;6178590;23;20060;-79
2022/08/26 12:31:31;;;;;;;4.57;2.50;;;21.10;99.90;;;;;;6178677;23;20021;-78
2022/08/26 12:34:01;;;;;;;5.22;2.63;;;21.00;99.90;;;;;;6179577;23;20382;-79
2022/08/26 12:36:33;;;;;;;2.60;2.30;;;21.00;99.90;;;;;;6178562;23;20043;-78
2022/08/26 12:39:11;;;;;;;5.95;3.30;;;21.10;99.90;;;;;;6179887;23;20113;-78
2022/08/26 12:41:50;;;;;;;6.55;3.00;;;21.00;99.90;;;;;;6177527;23;20407;-83
2022/08/26 12:44:59;;;;;;;5.47;2.22;;;21.00;99.90;;;;;;6181390;23;20025;-84
2022/08/26 12:47:32;;;;;;;4.80;2.90;;;21.00;99.90;;;;;;6090164;23;20122;-83
2022/08/26 12:50:04;;;;;;;4.13;2.70;;;21.00;99.90;;;;;;6171289;23;20461;-83
2022/08/26 12:52:50;;;;;;;;;;;21.10;99.90;;;;;;6179304;23;20032;-83
2022/08/26 12:55:23;;;;;;;5.13;2.67;;;21.10;99.90;;;;;;6180907;23;19920;-84
2022/08/26 12:58:10;;;;;;;5.22;2.65;;;21.00;99.90;;;;;;6181253;23;20136;-82
2022/08/26 13:00:41;;;;;;;4.25;3.03;;;21.00;99.90;;;;;;6179720;23;20092;-82
2022/08/26 13:03:48;;;;;;;4.80;2.80;;;21.00;99.90;;;;;;6203590;23;20021;-82
2022/08/26 13:06:29;;;;;;;4.07;2.40;;;21.00;99.90;;;;;;6158843;23;20466;-78
2022/08/26 13:09:04;;;;;;;4.53;2.72;;;21.00;99.90;;;;;;6177772;23;20025;-82
2022/08/26 13:12:02;;;;;;;2.80;2.60;;;21.00;99.90;;;;;;6130723;23;20491;-79
2022/08/26 13:14:34;;;;;;;5.00;2.33;;;21.00;99.90;;;;;;6178667;23;20035;-84
2022/08/26 13:17:12;;;;;;;2.80;2.60;;;20.90;99.90;;;;;;6154971;23;20055;-78
2022/08/26 13:19:40;;;;;;;6.55;2.65;;;20.90;99.90;;;;;;6178483;23;20095;-77
2022/08/26 13:22:13;;;;;;;6.53;2.60;;;20.90;99.90;;;;;;6181080;23;20044;-76
2022/08/26 13:24:43;;;;;;;;;;;20.90;99.90;;;;;;6130825;23;20029;-80
2022/08/26 13:27:20;;;;;;;5.60;2.17;;;20.90;99.90;;;;;;6152927;23;19947;-80
2022/08/26 13:29:51;;;;;;;9.15;2.38;;;20.80;99.90;;;;;;6180901;23;20100;-80
2022/08/26 13:32:30;;;;;;;3.97;2.47;;;20.80;99.90;;;;;;6178849;23;20021;-79